sensor_id;sensor_type;location;lat;lon;timestamp;temperature;humidity
25877;DHT22;13692;47.480;19.216;2023-12-22T00:00:40;6.80;99.90
25877;DHT22;13692;47.480;19.216;2023-12-22T00:03:07;6.80;99.90
25877;DHT22;13692;47.480;19.216;2023-12-22T00:05:34;6.80;99.90
25877;DHT22;13692;47.480;19.216;2023-12-22T00:08:01;6.80;99.90
25877;DHT22;13692;47.480;19.216;2023-12-22T00:10:29;6.80;99.90
25877;DHT22;13692;47.480;19.216;2023-12-22T00:12:56;6.90;99.90
25877;DHT22;13692;47.480;19.216;2023-12-22T00:15:23;6.90;99.90
25877;DHT22;13692;47.480;19.216;2023-12-22T00:17:49;7.00;99.90
25877;DHT22;13692;47.480;19.216;2023-12-22T00:20:17;7.10;99.90
25877;DHT22;13692;47.480;19.216;2023-12-22T00:22:45;7.10;99.90
25877;DHT22;13692;47.480;19.216;2023-12-22T00:25:12;7.20;99.90
25877;DHT22;13692;47.480;19.216;2023-12-22T00:27:39;7.20;99.90
25877;DHT22;13692;47.480;19.216;2023-12-22T00:30:07;7.30;99.90
25877;DHT22;13692;47.480;19.216;2023-12-22T00:32:34;7.30;99.90
25877;DHT22;13692;47.480;19.216;2023-12-22T00:35:01;7.40;99.90
25877;DHT22;13692;47.480;19.216;2023-12-22T00:37:28;7.40;99.90
25877;DHT22;13692;47.480;19.216;2023-12-22T00:39:55;7.40;99.90
25877;DHT22;13692;47.480;19.216;2023-12-22T00:42:23;7.40;99.90
25877;DHT22;13692;47.480;19.216;2023-12-22T00:44:50;7.40;99.90
25877;DHT22;13692;47.480;19.216;2023-12-22T00:47:17;7.40;99.90
25877;DHT22;13692;47.480;19.216;2023-12-22T00:49:44;7.40;99.90
25877;DHT22;13692;47.480;19.216;2023-12-22T00:52:11;7.30;99.90
25877;DHT22;13692;47.480;19.216;2023-12-22T00:54:39;7.30;99.90
25877;DHT22;13692;47.480;19.216;2023-12-22T00:57:06;7.30;99.90
25877;DHT22;13692;47.480;19.216;2023-12-22T00:59:33;7.30;99.90
25877;DHT22;13692;47.480;19.216;2023-12-22T01:02:00;7.20;99.90
25877;DHT22;13692;47.480;19.216;2023-12-22T01:04:27;7.20;99.90
25877;DHT22;13692;47.480;19.216;2023-12-22T01:06:54;7.20;99.90
25877;DHT22;13692;47.480;19.216;2023-12-22T01:09:21;7.30;99.90
25877;DHT22;13692;47.480;19.216;2023-12-22T01:11:48;7.30;99.90
25877;DHT22;13692;47.480;19.216;2023-12-22T01:14:15;7.30;99.90
25877;DHT22;13692;47.480;19.216;2023-12-22T01:16:42;7.30;99.90
25877;DHT22;13692;47.480;19.216;2023-12-22T01:19:09;7.30;99.90
25877;DHT22;13692;47.480;19.216;2023-12-22T01:21:36;7.30;99.90
25877;DHT22;13692;47.480;19.216;2023-12-22T01:24:03;7.30;99.90
25877;DHT22;13692;47.480;19.216;2023-12-22T01:26:31;7.20;99.90
25877;DHT22;13692;47.480;19.216;2023-12-22T01:28:58;7.20;99.90
25877;DHT22;13692;47.480;19.216;2023-12-22T01:31:25;7.20;99.90
25877;DHT22;13692;47.480;19.216;2023-12-22T01:33:51;7.20;99.90
25877;DHT22;13692;47.480;19.216;2023-12-22T01:36:18;7.20;99.90
25877;DHT22;13692;47.480;19.216;2023-12-22T01:38:45;7.20;99.90
25877;DHT22;13692;47.480;19.216;2023-12-22T01:41:12;7.20;99.90
25877;DHT22;13692;47.480;19.216;2023-12-22T01:43:40;7.20;99.90
25877;DHT22;13692;47.480;19.216;2023-12-22T01:46:07;7.20;99.90
25877;DHT22;13692;47.480;19.216;2023-12-22T01:48:36;7.20;99.90
25877;DHT22;13692;47.480;19.216;2023-12-22T01:51:04;7.20;99.90
25877;DHT22;13692;47.480;19.216;2023-12-22T01:53:32;7.20;99.90
25877;DHT22;13692;47.480;19.216;2023-12-22T01:56:03;7.20;99.90
25877;DHT22;13692;47.480;19.216;2023-12-22T01:58:31;7.20;99.90
25877;DHT22;13692;47.480;19.216;2023-12-22T02:00:59;7.20;99.90
25877;DHT22;13692;47.480;19.216;2023-12-22T02:03:27;7.20;99.90
25877;DHT22;13692;47.480;19.216;2023-12-22T02:05:54;7.10;99.90
25877;DHT22;13692;47.480;19.216;2023-12-22T02:08:22;7.10;99.90
25877;DHT22;13692;47.480;19.216;2023-12-22T02:10:51;7.10;99.90
25877;DHT22;13692;47.480;19.216;2023-12-22T02:13:18;7.20;99.90
25877;DHT22;13692;47.480;19.216;2023-12-22T02:15:46;7.20;99.90
25877;DHT22;13692;47.480;19.216;2023-12-22T02:18:24;7.10;99.90
25877;DHT22;13692;47.480;19.216;2023-12-22T02:20:53;7.10;99.90
25877;DHT22;13692;47.480;19.216;2023-12-22T02:23:20;7.10;99.90
25877;DHT22;13692;47.480;19.216;2023-12-22T02:25:49;7.20;99.90
25877;DHT22;13692;47.480;19.216;2023-12-22T02:28:21;7.20;99.90
25877;DHT22;13692;47.480;19.216;2023-12-22T02:31:02;7.20;99.90
25877;DHT22;13692;47.480;19.216;2023-12-22T02:33:31;7.20;99.90
25877;DHT22;13692;47.480;19.216;2023-12-22T02:36:04;7.20;99.90
25877;DHT22;13692;47.480;19.216;2023-12-22T02:38:33;7.20;99.90
25877;DHT22;13692;47.480;19.216;2023-12-22T02:41:01;7.20;99.90
25877;DHT22;13692;47.480;19.216;2023-12-22T02:43:28;7.20;99.90
25877;DHT22;13692;47.480;19.216;2023-12-22T02:45:55;7.20;99.90
25877;DHT22;13692;47.480;19.216;2023-12-22T02:48:22;7.20;99.90
25877;DHT22;13692;47.480;19.216;2023-12-22T02:50:50;7.20;99.90
25877;DHT22;13692;47.480;19.216;2023-12-22T02:53:17;7.20;99.90
25877;DHT22;13692;47.480;19.216;2023-12-22T02:55:44;7.20;99.90
25877;DHT22;13692;47.480;19.216;2023-12-22T02:58:11;7.20;99.90
25877;DHT22;13692;47.480;19.216;2023-12-22T03:00:38;7.30;99.90
25877;DHT22;13692;47.480;19.216;2023-12-22T03:03:05;7.20;99.90
25877;DHT22;13692;47.480;19.216;2023-12-22T03:05:32;7.10;99.90
25877;DHT22;13692;47.480;19.216;2023-12-22T03:07:59;7.10;99.90
25877;DHT22;13692;47.480;19.216;2023-12-22T03:10:29;7.10;99.90
25877;DHT22;13692;47.480;19.216;2023-12-22T03:12:56;7.10;99.90
25877;DHT22;13692;47.480;19.216;2023-12-22T03:15:23;7.10;99.90
25877;DHT22;13692;47.480;19.216;2023-12-22T03:17:50;7.00;99.90
25877;DHT22;13692;47.480;19.216;2023-12-22T03:20:17;7.00;99.90
25877;DHT22;13692;47.480;19.216;2023-12-22T03:22:44;7.00;99.90
25877;DHT22;13692;47.480;19.216;2023-12-22T03:25:11;7.00;99.90
25877;DHT22;13692;47.480;19.216;2023-12-22T03:27:38;7.00;99.90
25877;DHT22;13692;47.480;19.216;2023-12-22T03:30:05;7.00;99.90
25877;DHT22;13692;47.480;19.216;2023-12-22T03:32:32;7.00;99.90
25877;DHT22;13692;47.480;19.216;2023-12-22T03:34:59;7.00;99.90
25877;DHT22;13692;47.480;19.216;2023-12-22T03:37:26;7.00;99.90
25877;DHT22;13692;47.480;19.216;2023-12-22T03:39:53;7.00;99.90
25877;DHT22;13692;47.480;19.216;2023-12-22T03:42:20;7.00;99.90
25877;DHT22;13692;47.480;19.216;2023-12-22T03:44:47;7.00;99.90
25877;DHT22;13692;47.480;19.216;2023-12-22T03:47:14;6.90;99.90
25877;DHT22;13692;47.480;19.216;2023-12-22T03:49:42;6.90;99.90
25877;DHT22;13692;47.480;19.216;2023-12-22T03:52:09;6.90;99.90
25877;DHT22;13692;47.480;19.216;2023-12-22T03:54:36;7.00;99.90
25877;DHT22;13692;47.480;19.216;2023-12-22T03:57:03;6.90;99.90
25877;DHT22;13692;47.480;19.216;2023-12-22T03:59:29;6.90;99.90
25877;DHT22;13692;47.480;19.216;2023-12-22T04:01:56;6.90;99.90
25877;DHT22;13692;47.480;19.216;2023-12-22T04:04:24;6.90;99.90
25877;DHT22;13692;47.480;19.216;2023-12-22T04:06:54;6.90;99.90
25877;DHT22;13692;47.480;19.216;2023-12-22T04:09:21;6.90;99.90
25877;DHT22;13692;47.480;19.216;2023-12-22T04:11:48;6.90;99.90
25877;DHT22;13692;47.480;19.216;2023-12-22T04:14:15;6.80;99.90
25877;DHT22;13692;47.480;19.216;2023-12-22T04:16:43;6.80;99.90
25877;DHT22;13692;47.480;19.216;2023-12-22T04:19:10;6.70;99.90
25877;DHT22;13692;47.480;19.216;2023-12-22T04:21:38;6.70;99.90
25877;DHT22;13692;47.480;19.216;2023-12-22T04:24:06;6.70;99.90
25877;DHT22;13692;47.480;19.216;2023-12-22T04:26:33;6.60;99.90
25877;DHT22;13692;47.480;19.216;2023-12-22T04:29:00;6.60;99.90
25877;DHT22;13692;47.480;19.216;2023-12-22T04:31:26;6.60;99.90
25877;DHT22;13692;47.480;19.216;2023-12-22T04:33:54;6.50;99.90
25877;DHT22;13692;47.480;19.216;2023-12-22T04:36:22;6.50;99.90
25877;DHT22;13692;47.480;19.216;2023-12-22T04:38:49;6.50;99.90
25877;DHT22;13692;47.480;19.216;2023-12-22T04:41:16;6.60;99.90
25877;DHT22;13692;47.480;19.216;2023-12-22T04:43:43;6.60;99.90
25877;DHT22;13692;47.480;19.216;2023-12-22T04:46:10;6.60;99.90
25877;DHT22;13692;47.480;19.216;2023-12-22T04:48:37;6.60;99.90
25877;DHT22;13692;47.480;19.216;2023-12-22T04:51:04;6.60;99.90
25877;DHT22;13692;47.480;19.216;2023-12-22T04:53:31;6.50;99.90
25877;DHT22;13692;47.480;19.216;2023-12-22T04:55:58;6.50;99.90
25877;DHT22;13692;47.480;19.216;2023-12-22T04:58:25;6.40;99.90
25877;DHT22;13692;47.480;19.216;2023-12-22T05:00:52;6.30;99.90
25877;DHT22;13692;47.480;19.216;2023-12-22T05:03:19;6.30;99.90
25877;DHT22;13692;47.480;19.216;2023-12-22T05:05:46;6.20;99.90
25877;DHT22;13692;47.480;19.216;2023-12-22T05:08:13;6.10;99.90
25877;DHT22;13692;47.480;19.216;2023-12-22T05:10:41;6.10;99.90
25877;DHT22;13692;47.480;19.216;2023-12-22T05:13:08;6.00;99.90
25877;DHT22;13692;47.480;19.216;2023-12-22T05:15:35;6.00;99.90
25877;DHT22;13692;47.480;19.216;2023-12-22T05:18:02;5.90;99.90
25877;DHT22;13692;47.480;19.216;2023-12-22T05:20:30;5.90;99.90
25877;DHT22;13692;47.480;19.216;2023-12-22T05:22:57;5.80;99.90
25877;DHT22;13692;47.480;19.216;2023-12-22T05:25:24;5.70;99.90
25877;DHT22;13692;47.480;19.216;2023-12-22T05:27:51;5.70;99.90
25877;DHT22;13692;47.480;19.216;2023-12-22T05:30:18;5.70;99.90
25877;DHT22;13692;47.480;19.216;2023-12-22T05:32:45;5.60;99.90
25877;DHT22;13692;47.480;19.216;2023-12-22T05:35:12;5.60;99.90
25877;DHT22;13692;47.480;19.216;2023-12-22T05:37:39;5.50;99.90
25877;DHT22;13692;47.480;19.216;2023-12-22T05:40:07;5.50;99.90
25877;DHT22;13692;47.480;19.216;2023-12-22T05:42:34;5.50;99.90
25877;DHT22;13692;47.480;19.216;2023-12-22T05:45:01;5.50;99.90
25877;DHT22;13692;47.480;19.216;2023-12-22T05:47:28;5.40;99.90
25877;DHT22;13692;47.480;19.216;2023-12-22T05:49:56;5.40;99.90
25877;DHT22;13692;47.480;19.216;2023-12-22T05:52:23;5.40;99.90
25877;DHT22;13692;47.480;19.216;2023-12-22T05:54:50;5.40;99.90
25877;DHT22;13692;47.480;19.216;2023-12-22T05:57:17;5.30;99.90
25877;DHT22;13692;47.480;19.216;2023-12-22T05:59:44;5.30;99.90
25877;DHT22;13692;47.480;19.216;2023-12-22T06:02:11;5.30;99.90
25877;DHT22;13692;47.480;19.216;2023-12-22T06:04:38;5.30;99.90
25877;DHT22;13692;47.480;19.216;2023-12-22T06:07:05;5.30;99.90
25877;DHT22;13692;47.480;19.216;2023-12-22T06:09:32;5.20;99.90
25877;DHT22;13692;47.480;19.216;2023-12-22T06:11:58;5.20;99.90
25877;DHT22;13692;47.480;19.216;2023-12-22T06:14:25;5.30;99.90
25877;DHT22;13692;47.480;19.216;2023-12-22T06:16:52;5.30;99.90
25877;DHT22;13692;47.480;19.216;2023-12-22T06:19:20;5.30;99.90
25877;DHT22;13692;47.480;19.216;2023-12-22T06:21:48;5.30;99.90
25877;DHT22;13692;47.480;19.216;2023-12-22T06:24:15;5.20;99.90
25877;DHT22;13692;47.480;19.216;2023-12-22T06:26:43;5.20;99.90
25877;DHT22;13692;47.480;19.216;2023-12-22T06:29:10;5.20;99.90
25877;DHT22;13692;47.480;19.216;2023-12-22T06:31:37;5.20;99.90
25877;DHT22;13692;47.480;19.216;2023-12-22T06:34:04;5.30;99.90
25877;DHT22;13692;47.480;19.216;2023-12-22T06:36:32;5.30;99.90
25877;DHT22;13692;47.480;19.216;2023-12-22T06:38:58;5.30;99.90
25877;DHT22;13692;47.480;19.216;2023-12-22T06:41:29;5.30;99.90
25877;DHT22;13692;47.480;19.216;2023-12-22T06:43:57;5.30;99.90
25877;DHT22;13692;47.480;19.216;2023-12-22T06:46:28;5.40;99.90
25877;DHT22;13692;47.480;19.216;2023-12-22T06:48:56;5.40;99.90
25877;DHT22;13692;47.480;19.216;2023-12-22T06:51:29;5.50;99.90
25877;DHT22;13692;47.480;19.216;2023-12-22T06:54:02;5.50;99.90
25877;DHT22;13692;47.480;19.216;2023-12-22T06:56:33;5.60;99.90
25877;DHT22;13692;47.480;19.216;2023-12-22T06:59:01;5.70;99.90
25877;DHT22;13692;47.480;19.216;2023-12-22T07:01:30;5.80;99.90
25877;DHT22;13692;47.480;19.216;2023-12-22T07:03:59;5.90;99.90
25877;DHT22;13692;47.480;19.216;2023-12-22T07:06:31;6.00;99.90
25877;DHT22;13692;47.480;19.216;2023-12-22T07:11:49;6.20;99.90
25877;DHT22;13692;47.480;19.216;2023-12-22T07:14:25;6.20;99.90
25877;DHT22;13692;47.480;19.216;2023-12-22T07:16:52;6.50;99.90
25877;DHT22;13692;47.480;19.216;2023-12-22T07:19:19;7.70;99.90
25877;DHT22;13692;47.480;19.216;2023-12-22T07:21:46;7.80;99.90
25877;DHT22;13692;47.480;19.216;2023-12-22T07:24:13;8.00;99.90
25877;DHT22;13692;47.480;19.216;2023-12-22T07:26:42;8.00;99.90
25877;DHT22;13692;47.480;19.216;2023-12-22T07:29:11;7.70;99.90
25877;DHT22;13692;47.480;19.216;2023-12-22T07:31:38;7.40;99.90
25877;DHT22;13692;47.480;19.216;2023-12-22T07:34:05;7.20;99.90
25877;DHT22;13692;47.480;19.216;2023-12-22T07:36:35;7.20;99.90
25877;DHT22;13692;47.480;19.216;2023-12-22T07:39:11;7.20;99.90
25877;DHT22;13692;47.480;19.216;2023-12-22T07:41:38;7.30;99.90
25877;DHT22;13692;47.480;19.216;2023-12-22T07:44:05;7.30;99.90
25877;DHT22;13692;47.480;19.216;2023-12-22T07:46:34;7.20;99.90
25877;DHT22;13692;47.480;19.216;2023-12-22T07:49:00;7.30;99.90
25877;DHT22;13692;47.480;19.216;2023-12-22T07:51:28;7.30;99.90
25877;DHT22;13692;47.480;19.216;2023-12-22T07:53:55;7.30;99.90
25877;DHT22;13692;47.480;19.216;2023-12-22T07:56:22;7.40;99.90
25877;DHT22;13692;47.480;19.216;2023-12-22T07:58:49;7.50;99.90
25877;DHT22;13692;47.480;19.216;2023-12-22T08:01:16;7.60;99.90
25877;DHT22;13692;47.480;19.216;2023-12-22T08:03:43;7.70;99.90
25877;DHT22;13692;47.480;19.216;2023-12-22T08:06:10;7.80;99.90
25877;DHT22;13692;47.480;19.216;2023-12-22T08:08:38;7.90;99.90
25877;DHT22;13692;47.480;19.216;2023-12-22T08:11:05;7.90;99.90
25877;DHT22;13692;47.480;19.216;2023-12-22T08:13:32;8.10;99.90
25877;DHT22;13692;47.480;19.216;2023-12-22T08:15:59;8.20;99.90
25877;DHT22;13692;47.480;19.216;2023-12-22T08:18:26;8.40;99.90
25877;DHT22;13692;47.480;19.216;2023-12-22T08:20:53;8.50;99.90
25877;DHT22;13692;47.480;19.216;2023-12-22T08:23:20;8.70;99.90
25877;DHT22;13692;47.480;19.216;2023-12-22T08:25:48;8.90;99.90
25877;DHT22;13692;47.480;19.216;2023-12-22T08:28:16;9.10;99.90
25877;DHT22;13692;47.480;19.216;2023-12-22T08:30:43;9.30;99.90
25877;DHT22;13692;47.480;19.216;2023-12-22T08:33:10;9.50;99.90
25877;DHT22;13692;47.480;19.216;2023-12-22T08:35:37;9.70;99.90
25877;DHT22;13692;47.480;19.216;2023-12-22T08:38:04;9.90;99.90
25877;DHT22;13692;47.480;19.216;2023-12-22T08:40:31;10.00;99.90
25877;DHT22;13692;47.480;19.216;2023-12-22T08:42:59;10.20;99.90
25877;DHT22;13692;47.480;19.216;2023-12-22T08:45:28;10.50;99.90
25877;DHT22;13692;47.480;19.216;2023-12-22T08:47:58;10.80;99.90
25877;DHT22;13692;47.480;19.216;2023-12-22T08:50:25;10.90;99.90
25877;DHT22;13692;47.480;19.216;2023-12-22T08:52:52;11.10;99.90
25877;DHT22;13692;47.480;19.216;2023-12-22T08:55:19;11.20;99.90
25877;DHT22;13692;47.480;19.216;2023-12-22T08:57:47;11.50;99.90
25877;DHT22;13692;47.480;19.216;2023-12-22T09:00:25;11.40;99.90
25877;DHT22;13692;47.480;19.216;2023-12-22T09:02:52;10.90;99.90
25877;DHT22;13692;47.480;19.216;2023-12-22T09:05:21;10.60;99.90
25877;DHT22;13692;47.480;19.216;2023-12-22T09:07:49;10.40;99.90
25877;DHT22;13692;47.480;19.216;2023-12-22T09:10:16;10.20;99.90
25877;DHT22;13692;47.480;19.216;2023-12-22T09:12:43;9.90;99.90
25877;DHT22;13692;47.480;19.216;2023-12-22T09:15:10;9.80;99.90
25877;DHT22;13692;47.480;19.216;2023-12-22T09:17:37;9.60;99.90
25877;DHT22;13692;47.480;19.216;2023-12-22T09:20:06;9.50;99.90
25877;DHT22;13692;47.480;19.216;2023-12-22T09:22:34;9.40;99.90
25877;DHT22;13692;47.480;19.216;2023-12-22T09:25:01;9.40;99.90
25877;DHT22;13692;47.480;19.216;2023-12-22T09:27:28;9.30;99.90
25877;DHT22;13692;47.480;19.216;2023-12-22T09:29:57;9.20;99.90
25877;DHT22;13692;47.480;19.216;2023-12-22T09:32:24;9.10;99.90
25877;DHT22;13692;47.480;19.216;2023-12-22T09:34:52;9.10;99.90
25877;DHT22;13692;47.480;19.216;2023-12-22T09:37:19;9.10;99.90
25877;DHT22;13692;47.480;19.216;2023-12-22T09:39:46;9.20;99.90
25877;DHT22;13692;47.480;19.216;2023-12-22T09:42:13;9.30;99.90
25877;DHT22;13692;47.480;19.216;2023-12-22T09:44:42;9.50;99.90
25877;DHT22;13692;47.480;19.216;2023-12-22T09:47:09;9.60;99.90
25877;DHT22;13692;47.480;19.216;2023-12-22T09:49:40;9.50;99.90
25877;DHT22;13692;47.480;19.216;2023-12-22T09:52:09;9.50;99.90
25877;DHT22;13692;47.480;19.216;2023-12-22T09:54:37;9.30;99.90
25877;DHT22;13692;47.480;19.216;2023-12-22T09:57:05;9.30;99.90
25877;DHT22;13692;47.480;19.216;2023-12-22T09:59:51;9.20;99.90
25877;DHT22;13692;47.480;19.216;2023-12-22T10:02:19;9.10;99.90
25877;DHT22;13692;47.480;19.216;2023-12-22T10:04:46;9.00;99.90
25877;DHT22;13692;47.480;19.216;2023-12-22T10:07:14;8.90;99.90
25877;DHT22;13692;47.480;19.216;2023-12-22T10:09:43;8.80;99.90
25877;DHT22;13692;47.480;19.216;2023-12-22T10:12:13;8.80;99.90
25877;DHT22;13692;47.480;19.216;2023-12-22T10:14:41;8.70;99.90
25877;DHT22;13692;47.480;19.216;2023-12-22T10:17:09;8.60;99.90
25877;DHT22;13692;47.480;19.216;2023-12-22T10:19:36;8.60;99.90
25877;DHT22;13692;47.480;19.216;2023-12-22T10:22:03;8.50;99.90
25877;DHT22;13692;47.480;19.216;2023-12-22T10:27:04;8.50;99.90
25877;DHT22;13692;47.480;19.216;2023-12-22T10:29:31;8.50;99.90
25877;DHT22;13692;47.480;19.216;2023-12-22T10:32:04;8.50;99.90
25877;DHT22;13692;47.480;19.216;2023-12-22T10:34:34;8.50;99.90
25877;DHT22;13692;47.480;19.216;2023-12-22T10:37:02;8.50;99.90
25877;DHT22;13692;47.480;19.216;2023-12-22T10:39:32;8.60;99.90
25877;DHT22;13692;47.480;19.216;2023-12-22T10:42:00;8.60;99.90
25877;DHT22;13692;47.480;19.216;2023-12-22T10:44:28;8.60;99.90
25877;DHT22;13692;47.480;19.216;2023-12-22T10:46:56;8.60;99.90
25877;DHT22;13692;47.480;19.216;2023-12-22T10:49:24;8.70;99.90
25877;DHT22;13692;47.480;19.216;2023-12-22T10:51:52;8.70;99.90
25877;DHT22;13692;47.480;19.216;2023-12-22T10:54:19;8.70;99.90
25877;DHT22;13692;47.480;19.216;2023-12-22T10:56:46;8.70;99.90
25877;DHT22;13692;47.480;19.216;2023-12-22T10:59:17;8.70;99.90
25877;DHT22;13692;47.480;19.216;2023-12-22T11:01:45;8.70;99.90
25877;DHT22;13692;47.480;19.216;2023-12-22T11:04:17;8.70;99.90
25877;DHT22;13692;47.480;19.216;2023-12-22T11:06:48;8.80;99.90
25877;DHT22;13692;47.480;19.216;2023-12-22T11:09:17;8.90;99.90
25877;DHT22;13692;47.480;19.216;2023-12-22T11:11:45;9.00;99.90
25877;DHT22;13692;47.480;19.216;2023-12-22T11:14:13;9.10;99.90
25877;DHT22;13692;47.480;19.216;2023-12-22T11:16:41;9.10;99.90
25877;DHT22;13692;47.480;19.216;2023-12-22T11:19:15;9.10;99.90
25877;DHT22;13692;47.480;19.216;2023-12-22T11:21:43;9.20;99.90
25877;DHT22;13692;47.480;19.216;2023-12-22T11:24:13;9.20;99.90
25877;DHT22;13692;47.480;19.216;2023-12-22T11:26:46;9.30;99.90
25877;DHT22;13692;47.480;19.216;2023-12-22T11:29:14;9.30;99.90
25877;DHT22;13692;47.480;19.216;2023-12-22T11:31:44;9.30;99.90
25877;DHT22;13692;47.480;19.216;2023-12-22T11:34:12;9.30;99.90
25877;DHT22;13692;47.480;19.216;2023-12-22T11:36:45;9.30;99.90
25877;DHT22;13692;47.480;19.216;2023-12-22T11:39:14;9.30;99.90
25877;DHT22;13692;47.480;19.216;2023-12-22T11:41:42;9.20;99.90
25877;DHT22;13692;47.480;19.216;2023-12-22T11:44:10;9.20;99.90
25877;DHT22;13692;47.480;19.216;2023-12-22T11:46:37;9.30;99.90
25877;DHT22;13692;47.480;19.216;2023-12-22T11:49:04;9.30;99.90
25877;DHT22;13692;47.480;19.216;2023-12-22T11:51:32;9.30;99.90
25877;DHT22;13692;47.480;19.216;2023-12-22T11:54:01;9.20;99.90
25877;DHT22;13692;47.480;19.216;2023-12-22T11:56:29;9.20;99.90
25877;DHT22;13692;47.480;19.216;2023-12-22T11:58:56;9.10;99.90
25877;DHT22;13692;47.480;19.216;2023-12-22T12:01:27;9.00;99.90
25877;DHT22;13692;47.480;19.216;2023-12-22T12:04:02;9.00;99.90
25877;DHT22;13692;47.480;19.216;2023-12-22T12:06:33;9.00;99.90
25877;DHT22;13692;47.480;19.216;2023-12-22T12:09:04;9.00;99.90
25877;DHT22;13692;47.480;19.216;2023-12-22T12:14:32;8.80;99.90
25877;DHT22;13692;47.480;19.216;2023-12-22T12:17:09;8.80;99.90
25877;DHT22;13692;47.480;19.216;2023-12-22T12:19:38;8.80;99.90
25877;DHT22;13692;47.480;19.216;2023-12-22T12:22:06;8.80;99.90
25877;DHT22;13692;47.480;19.216;2023-12-22T12:24:34;8.70;99.90
25877;DHT22;13692;47.480;19.216;2023-12-22T12:27:02;8.70;99.90
25877;DHT22;13692;47.480;19.216;2023-12-22T12:29:32;8.70;99.90
25877;DHT22;13692;47.480;19.216;2023-12-22T12:32:06;8.70;99.90
25877;DHT22;13692;47.480;19.216;2023-12-22T12:34:33;8.60;99.90
25877;DHT22;13692;47.480;19.216;2023-12-22T12:37:01;8.60;99.90
25877;DHT22;13692;47.480;19.216;2023-12-22T12:39:31;8.60;99.90
25877;DHT22;13692;47.480;19.216;2023-12-22T12:42:00;8.60;99.90
25877;DHT22;13692;47.480;19.216;2023-12-22T12:44:30;8.60;99.90
25877;DHT22;13692;47.480;19.216;2023-12-22T12:47:11;8.60;99.90
25877;DHT22;13692;47.480;19.216;2023-12-22T12:49:39;8.60;99.90
25877;DHT22;13692;47.480;19.216;2023-12-22T12:52:14;8.60;99.90
25877;DHT22;13692;47.480;19.216;2023-12-22T12:54:42;8.50;99.90
25877;DHT22;13692;47.480;19.216;2023-12-22T12:57:15;8.50;99.90
25877;DHT22;13692;47.480;19.216;2023-12-22T12:59:46;8.30;99.90
25877;DHT22;13692;47.480;19.216;2023-12-22T13:02:18;8.10;99.90
25877;DHT22;13692;47.480;19.216;2023-12-22T13:04:46;7.80;99.90
25877;DHT22;13692;47.480;19.216;2023-12-22T13:07:13;7.60;99.90
25877;DHT22;13692;47.480;19.216;2023-12-22T13:09:41;7.30;99.90
25877;DHT22;13692;47.480;19.216;2023-12-22T13:12:11;7.20;99.90
25877;DHT22;13692;47.480;19.216;2023-12-22T13:14:38;7.10;99.90
25877;DHT22;13692;47.480;19.216;2023-12-22T13:17:05;7.00;99.90
25877;DHT22;13692;47.480;19.216;2023-12-22T13:19:32;6.90;99.90
25877;DHT22;13692;47.480;19.216;2023-12-22T13:22:00;6.90;99.90
25877;DHT22;13692;47.480;19.216;2023-12-22T13:24:27;6.90;99.90
25877;DHT22;13692;47.480;19.216;2023-12-22T13:27:04;6.80;99.90
25877;DHT22;13692;47.480;19.216;2023-12-22T13:29:44;6.70;99.90
25877;DHT22;13692;47.480;19.216;2023-12-22T13:32:17;6.60;99.90
25877;DHT22;13692;47.480;19.216;2023-12-22T13:34:53;6.50;99.90
25877;DHT22;13692;47.480;19.216;2023-12-22T13:37:21;6.40;99.90
25877;DHT22;13692;47.480;19.216;2023-12-22T13:39:50;6.40;99.90
25877;DHT22;13692;47.480;19.216;2023-12-22T13:42:18;6.30;99.90
25877;DHT22;13692;47.480;19.216;2023-12-22T13:44:48;6.30;99.90
25877;DHT22;13692;47.480;19.216;2023-12-22T13:47:16;6.20;99.90
25877;DHT22;13692;47.480;19.216;2023-12-22T13:49:45;6.10;99.90
25877;DHT22;13692;47.480;19.216;2023-12-22T13:54:54;6.10;99.90
25877;DHT22;13692;47.480;19.216;2023-12-22T13:57:23;6.10;99.90
25877;DHT22;13692;47.480;19.216;2023-12-22T13:59:52;6.00;99.90
25877;DHT22;13692;47.480;19.216;2023-12-22T14:02:23;6.00;99.90
25877;DHT22;13692;47.480;19.216;2023-12-22T14:04:50;6.00;99.90
25877;DHT22;13692;47.480;19.216;2023-12-22T14:07:18;6.00;99.90
25877;DHT22;13692;47.480;19.216;2023-12-22T14:09:45;5.90;99.90
25877;DHT22;13692;47.480;19.216;2023-12-22T14:12:12;5.90;99.90
25877;DHT22;13692;47.480;19.216;2023-12-22T14:14:46;5.90;99.90
25877;DHT22;13692;47.480;19.216;2023-12-22T14:17:13;5.90;99.90
25877;DHT22;13692;47.480;19.216;2023-12-22T14:19:40;5.90;99.90
25877;DHT22;13692;47.480;19.216;2023-12-22T14:22:07;5.90;99.90
25877;DHT22;13692;47.480;19.216;2023-12-22T14:24:34;5.90;99.90
25877;DHT22;13692;47.480;19.216;2023-12-22T14:27:01;5.90;99.90
25877;DHT22;13692;47.480;19.216;2023-12-22T14:29:28;5.90;99.90
25877;DHT22;13692;47.480;19.216;2023-12-22T14:31:55;5.90;99.90
25877;DHT22;13692;47.480;19.216;2023-12-22T14:34:22;5.80;99.90
25877;DHT22;13692;47.480;19.216;2023-12-22T14:36:49;5.70;99.90
25877;DHT22;13692;47.480;19.216;2023-12-22T14:39:16;5.60;99.90
25877;DHT22;13692;47.480;19.216;2023-12-22T14:41:43;5.50;99.90
25877;DHT22;13692;47.480;19.216;2023-12-22T14:44:10;5.50;99.90
25877;DHT22;13692;47.480;19.216;2023-12-22T14:46:40;5.40;99.90
25877;DHT22;13692;47.480;19.216;2023-12-22T14:49:07;5.30;99.90
25877;DHT22;13692;47.480;19.216;2023-12-22T14:51:38;5.30;99.90
25877;DHT22;13692;47.480;19.216;2023-12-22T14:54:06;5.30;99.90
25877;DHT22;13692;47.480;19.216;2023-12-22T14:56:33;5.20;99.90
25877;DHT22;13692;47.480;19.216;2023-12-22T14:59:00;5.30;99.90
25877;DHT22;13692;47.480;19.216;2023-12-22T15:01:27;5.30;99.90
25877;DHT22;13692;47.480;19.216;2023-12-22T15:03:54;5.30;99.90
25877;DHT22;13692;47.480;19.216;2023-12-22T15:06:21;5.40;99.90
25877;DHT22;13692;47.480;19.216;2023-12-22T15:08:48;5.50;99.90
25877;DHT22;13692;47.480;19.216;2023-12-22T15:11:15;5.50;99.90
25877;DHT22;13692;47.480;19.216;2023-12-22T15:13:42;5.60;99.90
25877;DHT22;13692;47.480;19.216;2023-12-22T15:16:10;5.60;99.90
25877;DHT22;13692;47.480;19.216;2023-12-22T15:18:36;5.70;99.90
25877;DHT22;13692;47.480;19.216;2023-12-22T15:21:04;5.70;99.90
25877;DHT22;13692;47.480;19.216;2023-12-22T15:23:31;5.80;99.90
25877;DHT22;13692;47.480;19.216;2023-12-22T15:25:58;5.80;99.90
25877;DHT22;13692;47.480;19.216;2023-12-22T15:28:25;5.80;99.90
25877;DHT22;13692;47.480;19.216;2023-12-22T15:30:52;5.80;99.90
25877;DHT22;13692;47.480;19.216;2023-12-22T15:33:19;5.70;99.90
25877;DHT22;13692;47.480;19.216;2023-12-22T15:35:46;5.80;99.90
25877;DHT22;13692;47.480;19.216;2023-12-22T15:38:14;5.80;99.90
25877;DHT22;13692;47.480;19.216;2023-12-22T15:40:41;5.90;99.90
25877;DHT22;13692;47.480;19.216;2023-12-22T15:43:08;5.90;99.90
25877;DHT22;13692;47.480;19.216;2023-12-22T15:45:35;5.90;99.90